Time;durP1;ratioP1;P1;durP2;ratioP2;P2;SDS_P1;SDS_P2;PMS_P1;PMS_P2;Temp;Humidity;BMP_temperature;BMP_pressure;BME280_temperature;BME280_humidity;BME280_pressure;Samples;Min_cycle;Max_cycle;Signal;HPM_P1;HPM_P2
2021/05/18 00:00:29;;;;;;;10.10;8.93;;;;;;;14.43;63.11;99652.75;5032002;28;20489;-73
2021/05/18 00:02:56;;;;;;;13.13;8.93;;;;;;;14.81;62.22;99659.00;5025113;28;20455;-73
2021/05/18 00:05:25;;;;;;;15.10;10.50;;;;;;;14.49;63.06;99654.69;5021913;28;20562;-73
2021/05/18 00:07:56;;;;;;;15.20;11.50;;;;;;;14.47;62.83;99656.72;5025637;28;20450;-72
2021/05/18 00:13:07;;;;;;;14.80;10.70;;;;;;;14.62;62.78;99664.91;5041334;28;20452;-73
2021/05/18 00:15:34;;;;;;;17.57;11.30;;;;;;;14.39;63.05;99670.25;5032060;28;20496;-73
2021/05/18 00:18:00;;;;;;;14.17;11.37;;;;;;;14.55;62.82;99664.75;5028867;28;20478;-72
2021/05/18 00:20:27;;;;;;;14.70;10.80;;;;;;;14.77;61.95;99670.28;5039703;28;20496;-72
2021/05/18 00:22:53;;;;;;;16.73;11.23;;;;;;;14.75;61.88;99670.47;5035428;28;20508;-74
2021/05/18 00:25:19;;;;;;;17.77;10.97;;;;;;;14.68;62.41;99669.53;5034143;28;20493;-72
2021/05/18 00:27:45;;;;;;;16.20;11.20;;;;;;;14.36;63.24;99665.25;5029654;28;20535;-73
2021/05/18 00:30:13;;;;;;;16.20;11.50;;;;;;;14.05;63.97;99671.50;5035356;28;20532;-72
2021/05/18 00:32:40;;;;;;;16.80;11.23;;;;;;;14.50;62.84;99670.66;5035097;28;20477;-73
2021/05/18 00:35:09;;;;;;;17.70;11.77;;;;;;;14.32;63.26;99678.19;5026633;28;20537;-73
2021/05/18 00:37:35;;;;;;;17.13;11.07;;;;;;;14.26;63.47;99677.06;5029960;28;20431;-73
2021/05/18 00:40:02;;;;;;;18.57;12.37;;;;;;;14.37;62.74;99678.47;5025734;28;20498;-74
2021/05/18 00:42:29;;;;;;;18.30;11.57;;;;;;;14.54;62.77;99667.63;5030835;28;20508;-72
2021/05/18 00:44:55;;;;;;;19.07;12.37;;;;;;;14.48;62.54;99675.38;5036826;28;20968;-73
2021/05/18 00:47:21;;;;;;;17.60;12.60;;;;;;;14.71;61.86;99673.72;5043635;28;20540;-73
2021/05/18 00:49:48;;;;;;;19.67;11.60;;;;;;;14.71;61.56;99679.13;5044362;28;20564;-74
2021/05/18 00:52:15;;;;;;;18.70;11.90;;;;;;;14.53;62.30;99682.06;5042627;28;20505;-72
2021/05/18 00:54:45;;;;;;;16.90;12.57;;;;;;;14.66;61.68;99671.56;5025124;28;20457;-74
2021/05/18 00:59:55;;;;;;;18.53;12.20;;;;;;;14.46;62.18;99676.56;5043743;28;20441;-73
2021/05/18 01:02:21;;;;;;;18.10;11.53;;;;;;;14.80;61.30;99672.63;5042439;28;20513;-73
2021/05/18 01:04:49;;;;;;;16.87;12.10;;;;;;;14.51;61.95;99674.16;5043697;28;20457;-73
2021/05/18 01:07:15;;;;;;;20.77;12.43;;;;;;;14.71;61.51;99674.56;5042270;28;20486;-73
2021/05/18 01:09:41;;;;;;;19.53;12.07;;;;;;;14.44;61.92;99675.91;5026862;28;20521;-73
2021/05/18 01:12:08;;;;;;;19.07;13.10;;;;;;;14.16;62.95;99681.81;5032055;28;20558;-73
2021/05/18 01:14:34;;;;;;;22.63;13.13;;;;;;;14.24;62.61;99684.47;5035719;28;20477;-72
2021/05/18 01:17:00;;;;;;;21.13;11.87;;;;;;;14.34;62.41;99678.88;5038444;28;20498;-72
2021/05/18 01:19:27;;;;;;;20.77;11.07;;;;;;;14.23;62.85;99685.47;5038659;28;20516;-72
2021/05/18 01:21:56;;;;;;;20.50;12.23;;;;;;;14.13;63.39;99688.41;5040346;28;21029;-70
2021/05/18 01:24:23;;;;;;;18.27;12.03;;;;;;;14.22;63.01;99688.34;5038937;28;20446;-73
2021/05/18 01:26:49;;;;;;;20.30;11.97;;;;;;;14.08;63.40;99692.66;5037580;28;20903;-73
2021/05/18 01:29:16;;;;;;;20.00;12.77;;;;;;;13.76;64.27;99694.47;5043741;28;20442;-73
2021/05/18 01:31:44;;;;;;;20.80;12.03;;;;;;;13.95;63.96;99690.50;5034100;28;20545;-73
2021/05/18 01:34:10;;;;;;;17.40;11.00;;;;;;;13.93;63.88;99693.38;5032770;28;20536;-74
2021/05/18 01:36:36;;;;;;;20.20;12.30;;;;;;;13.79;64.48;99680.69;5041033;28;20520;-73
2021/05/18 01:39:11;;;;;;;21.63;11.80;;;;;;;13.83;64.16;99679.31;5036128;28;20911;-73
2021/05/18 01:44:21;;;;;;;24.50;11.33;;;;;;;13.56;64.99;99700.25;5025890;28;20468;-72
2021/05/18 01:46:48;;;;;;;27.63;13.23;;;;;;;13.97;63.53;99706.47;5031727;28;20478;-70
2021/05/18 01:49:16;;;;;;;21.73;11.97;;;;;;;13.93;63.92;99701.44;5035512;28;20445;-73
2021/05/18 01:51:44;;;;;;;24.33;12.30;;;;;;;14.24;62.35;99700.59;5042149;28;20492;-73
2021/05/18 01:54:13;;;;;;;29.27;13.13;;;;;;;13.89;63.48;99710.03;5035246;28;20878;-71
2021/05/18 01:56:46;;;;;;;20.50;12.60;;;;;;;13.59;64.05;99707.13;5031501;28;20474;-73
2021/05/18 01:59:17;;;;;;;19.90;11.37;;;;;;;14.05;62.85;99703.75;5032722;28;20446;-72
2021/05/18 02:01:43;;;;;;;22.03;11.80;;;;;;;14.01;62.53;99705.09;5033666;28;20898;-73
2021/05/18 02:04:20;;;;;;;26.17;12.20;;;;;;;14.03;62.50;99711.97;5039280;28;20536;-72
2021/05/18 02:06:46;;;;;;;25.93;12.03;;;;;;;13.72;63.70;99712.78;5027783;28;20564;-72
2021/05/18 02:09:13;;;;;;;21.60;12.87;;;;;;;13.61;63.91;99723.94;5036993;28;20533;-73
2021/05/18 02:11:39;;;;;;;20.57;11.67;;;;;;;14.01;62.89;99730.13;5041951;28;20483;-74
2021/05/18 02:14:07;;;;;;;23.93;11.93;;;;;;;13.43;64.39;99728.69;5042878;28;20493;-73
2021/05/18 02:16:37;;;;;;;23.00;12.00;;;;;;;13.66;63.79;99732.31;5033335;28;21136;-73
2021/05/18 02:19:17;;;;;;;24.23;11.87;;;;;;;13.88;63.06;99733.38;5041957;28;20521;-73
2021/05/18 02:21:54;;;;;;;16.70;11.40;;;;;;;13.94;62.71;99738.06;5034723;28;20484;-74
2021/05/18 02:24:47;;;;;;;22.03;11.50;;;;;;;13.75;63.39;99743.84;5034350;28;20458;-74
2021/05/18 02:27:13;;;;;;;24.23;13.07;;;;;;;13.66;63.71;99748.44;5038623;28;20512;-73
2021/05/18 02:29:39;;;;;;;19.90;11.77;;;;;;;13.91;62.89;99742.94;5034493;28;20488;-74
2021/05/18 02:32:05;;;;;;;17.57;11.53;;;;;;;13.94;62.80;99748.81;5026713;28;20546;-74
2021/05/18 02:34:32;;;;;;;21.50;12.40;;;;;;;13.24;64.74;99748.66;5033449;28;20955;-74
2021/05/18 02:37:00;;;;;;;23.13;12.40;;;;;;;13.39;64.10;99744.28;5039802;28;20594;-74
2021/05/18 02:39:27;;;;;;;18.27;12.73;;;;;;;13.47;64.04;99746.97;5025303;28;20490;-74
2021/05/18 02:41:53;;;;;;;17.93;11.87;;;;;;;13.84;62.54;99753.56;5033726;28;20486;-70
2021/05/18 02:44:24;;;;;;;19.60;11.80;;;;;;;13.40;63.32;99745.94;5030616;28;20975;-74
2021/05/18 02:49:39;;;;;;;19.43;12.97;;;;;;;13.39;63.86;99740.78;4980594;28;20453;-74
2021/05/18 02:52:06;;;;;;;19.33;11.60;;;;;;;13.61;63.22;99749.94;4980451;28;20935;-74
2021/05/18 02:54:33;;;;;;;16.67;11.03;;;;;;;13.64;63.29;99750.41;4981016;28;20547;-74
2021/05/18 02:57:00;;;;;;;25.73;12.17;;;;;;;13.77;62.74;99746.38;4979979;28;20476;-74
2021/05/18 02:59:27;;;;;;;24.57;12.20;;;;;;;13.87;62.64;99750.53;4981107;28;20920;-73
2021/05/18 03:01:54;;;;;;;24.77;13.07;;;;;;;13.79;62.80;99753.22;4980346;28;20552;-73
2021/05/18 03:04:21;;;;;;;20.03;12.93;;;;;;;14.05;61.94;99752.13;4976503;28;20456;-74
2021/05/18 03:06:49;;;;;;;20.40;11.67;;;;;;;14.27;61.25;99754.03;4971303;28;20480;-74
2021/05/18 03:09:16;;;;;;;18.13;11.60;;;;;;;14.27;61.28;99751.34;4980820;28;20447;-74
2021/05/18 03:11:44;;;;;;;15.83;11.83;;;;;;;13.68;63.04;99748.22;4980287;28;20476;-74
2021/05/18 03:14:12;;;;;;;15.47;11.70;;;;;;;13.63;63.38;99754.13;4980255;28;20543;-74
2021/05/18 03:16:38;;;;;;;17.07;11.87;;;;;;;14.07;62.09;99755.47;4979661;28;20523;-72
2021/05/18 03:19:05;;;;;;;22.77;13.37;;;;;;;14.20;61.40;99747.69;4980685;28;20599;-73
2021/05/18 03:21:32;;;;;;;23.07;12.30;;;;;;;14.02;61.79;99752.47;4980087;28;20488;-73
2021/05/18 03:23:58;;;;;;;21.60;13.00;;;;;;;14.21;61.55;99751.19;4980158;28;20550;-69
2021/05/18 03:26:26;;;;;;;21.07;12.13;;;;;;;14.00;62.01;99752.63;5016955;28;20485;-74
2021/05/18 03:28:57;;;;;;;20.90;12.70;;;;;;;13.93;62.06;99752.50;5033253;28;20465;-73
2021/05/18 03:34:28;;;;;;;23.53;13.00;;;;;;;13.93;62.00;99759.72;5033607;28;20514;-73
2021/05/18 03:36:55;;;;;;;21.30;13.60;;;;;;;13.99;61.71;99763.56;5033086;28;20489;-73
2021/05/18 03:39:21;;;;;;;20.20;12.10;;;;;;;14.17;61.33;99766.84;5033541;28;20479;-74
2021/05/18 03:41:54;;;;;;;26.00;13.63;;;;;;;13.96;61.73;99762.06;5038354;28;20624;-73
2021/05/18 03:44:27;;;;;;;21.23;13.03;;;;;;;13.89;62.18;99761.94;5032466;28;20454;-73
2021/05/18 03:52:25;;;;;;;17.67;13.80;;;;;;;14.01;61.62;99778.53;5027321;28;20482;-74
2021/05/18 03:55:01;;;;;;;20.33;14.30;;;;;;;14.01;61.28;99774.97;5034918;28;20458;-73
2021/05/18 04:03:08;;;;;;;23.30;14.83;;;;;;;14.08;61.64;99778.66;5035050;28;20461;-73
2021/05/18 04:19:18;;;;;;;21.63;14.20;;;;;;;13.87;62.23;99787.28;5040753;28;20481;-73
2021/05/18 04:21:53;;;;;;;24.10;13.47;;;;;;;13.54;62.65;99796.28;5030177;28;20483;-73
2021/05/18 04:49:49;;;;;;;10.63;7.60;;;;;;;22.04;38.21;99815.00;5000692;28;20470;-73
2021/05/18 04:52:17;;;;;;;11.60;8.37;;;;;;;21.95;37.73;99817.19;4999099;28;20539;-72
2021/05/18 05:00:17;;;;;;;13.77;8.80;;;;;;;20.05;42.61;99816.16;5000428;28;20935;-73
2021/05/18 05:03:02;;;;;;;15.83;7.87;;;;;;;21.53;39.31;99814.28;5012943;28;20869;-73
2021/05/18 05:08:16;;;;;;;15.20;8.93;;;;;;;23.26;35.89;99816.78;5037787;28;20433;-71
2021/05/18 05:16:11;;;;;;;11.53;8.50;;;;;;;22.37;36.57;99828.25;5034911;28;20484;-73
2021/05/18 05:18:37;;;;;;;11.90;7.87;;;;;;;20.73;39.38;99822.16;5036442;28;20466;-72
2021/05/18 05:21:04;;;;;;;13.17;8.30;;;;;;;18.62;43.72;99833.59;5023872;28;20546;-73
2021/05/18 05:23:30;;;;;;;11.07;7.83;;;;;;;19.26;42.89;99828.72;5036566;28;20482;-74
2021/05/18 05:25:57;;;;;;;16.40;8.20;;;;;;;17.76;46.62;99833.97;5032728;28;20506;-74
2021/05/18 05:28:23;;;;;;;15.60;9.33;;;;;;;16.67;49.27;99837.75;5026380;28;20467;-73
2021/05/18 05:30:49;;;;;;;16.63;9.87;;;;;;;16.26;50.61;99834.75;5041886;28;20474;-73
2021/05/18 05:33:15;;;;;;;15.77;9.67;;;;;;;16.91;49.41;99838.47;5036281;28;20453;-73
2021/05/18 05:35:42;;;;;;;13.77;9.60;;;;;;;17.27;48.29;99835.69;5033592;28;20498;-72
2021/05/18 05:38:09;;;;;;;17.00;8.93;;;;;;;19.06;44.47;99836.88;5042497;28;20528;-72
2021/05/18 05:40:35;;;;;;;13.77;8.63;;;;;;;19.66;41.85;99839.56;5034797;28;20570;-71
2021/05/18 05:43:02;;;;;;;12.93;7.63;;;;;;;19.36;42.32;99840.00;5040271;28;20477;-72
2021/05/18 05:45:28;;;;;;;13.90;8.53;;;;;;;18.51;44.90;99846.91;5032471;28;20668;-71
2021/05/18 05:47:54;;;;;;;16.23;8.70;;;;;;;17.08;47.55;99839.88;5034666;28;20540;-72
2021/05/18 05:50:20;;;;;;;14.17;9.37;;;;;;;17.23;48.08;99853.28;5034020;28;20454;-73
2021/05/18 05:52:46;;;;;;;15.90;8.37;;;;;;;17.09;48.64;99854.22;5033887;28;20485;-73
2021/05/18 05:55:13;;;;;;;13.90;8.40;;;;;;;17.05;48.99;99852.94;5021578;28;20454;-73
2021/05/18 05:57:40;;;;;;;14.93;8.70;;;;;;;17.50;47.73;99853.53;5023178;28;20566;-73
2021/05/18 06:00:08;;;;;;;10.07;8.23;;;;;;;16.50;50.14;99861.41;5021944;28;20518;-73
2021/05/18 06:02:34;;;;;;;54.13;44.90;;;;;;;16.93;49.75;99855.31;5028485;28;20791;-73
2021/05/18 06:05:00;;;;;;;14.37;9.57;;;;;;;16.61;50.39;99868.19;5042611;28;20537;-73
2021/05/18 06:07:26;;;;;;;14.90;9.40;;;;;;;16.28;51.62;99870.47;5041202;28;20911;-73
2021/05/18 06:09:57;;;;;;;14.73;9.07;;;;;;;15.90;52.67;99874.13;5041594;28;20484;-73
2021/05/18 06:12:35;;;;;;;13.33;8.83;;;;;;;15.61;53.13;99875.69;5041901;28;20481;-73
2021/05/18 06:34:36;;;;;;;12.87;9.47;;;;;;;17.33;48.60;99877.31;5041401;28;20453;-73
2021/05/18 06:37:23;;;;;;;15.73;7.63;;;;;;;17.61;47.55;99880.03;5041647;28;20489;-74
2021/05/18 06:42:41;;;;;;;16.03;8.13;;;;;;;16.79;49.29;99878.59;5040977;28;20493;-73
2021/05/18 06:47:53;;;;;;;15.17;9.50;;;;;;;17.15;48.59;99880.47;5021596;28;20818;-74
2021/05/18 06:50:29;;;;;;;11.43;7.80;;;;;;;17.13;47.92;99883.34;5021775;28;20453;-75
2021/05/18 06:52:56;;;;;;;16.53;8.73;;;;;;;18.02;45.83;99890.16;5031589;28;20469;-76
2021/05/18 06:55:26;;;;;;;12.53;8.23;;;;;;;17.66;46.08;99892.97;5038373;28;20460;-74
2021/05/18 06:57:57;;;;;;;9.93;7.60;;;;;;;17.82;45.30;99902.66;5042608;28;20457;-73
2021/05/18 07:00:24;;;;;;;8.37;6.67;;;;;;;18.04;44.90;99892.66;5043229;28;20947;-79
2021/05/18 07:02:51;;;;;;;11.73;7.20;;;;;;;18.51;44.13;99892.91;5041952;28;20503;-80
2021/05/18 07:05:23;;;;;;;15.67;7.53;;;;;;;18.23;43.76;99894.63;5043143;28;20647;-77
2021/05/18 07:07:54;;;;;;;14.63;7.90;;;;;;;17.51;45.79;99895.75;5039147;28;20496;-74
2021/05/18 07:10:20;;;;;;;13.73;7.20;;;;;;;18.54;44.42;99892.47;5044339;28;20418;-70
2021/05/18 07:12:46;;;;;;;13.10;8.53;;;;;;;18.79;43.44;99900.94;5044075;28;20481;-69
2021/05/18 07:15:14;;;;;;;13.90;7.47;;;;;;;19.81;41.66;99909.91;5042497;28;20453;-68
2021/05/18 07:17:41;;;;;;;10.13;6.77;;;;;;;19.95;41.40;99902.59;5043563;28;20468;-68
2021/05/18 07:20:11;;;;;;;8.90;6.27;;;;;;;20.73;38.98;99895.50;5039997;28;20490;-70
2021/05/18 07:22:37;;;;;;;8.33;6.00;;;;;;;20.69;37.30;99903.25;5041234;28;20441;-70
2021/05/18 07:25:04;;;;;;;11.30;7.50;;;;;;;20.93;37.13;99895.41;5038783;28;20457;-70
2021/05/18 07:27:31;;;;;;;11.20;5.80;;;;;;;20.23;38.10;99899.63;5041134;28;20489;-70
2021/05/18 07:29:57;;;;;;;11.50;5.73;;;;;;;20.12;38.27;99905.72;5041539;28;20458;-70
2021/05/18 07:32:24;;;;;;;9.83;5.37;;;;;;;21.11;37.08;99897.38;5038440;28;20873;-70
2021/05/18 07:34:51;;;;;;;9.03;4.83;;;;;;;21.28;36.62;99893.09;5041168;28;20448;-69
2021/05/18 07:37:17;;;;;;;11.37;6.17;;;;;;;19.24;40.71;99893.16;5040530;28;20489;-70
2021/05/18 07:39:43;;;;;;;11.97;7.10;;;;;;;19.78;40.02;99899.47;5039795;28;20500;-69
2021/05/18 07:42:10;;;;;;;9.90;6.40;;;;;;;19.06;40.17;99893.75;5039540;28;21762;-78
2021/05/18 07:44:37;;;;;;;9.57;6.50;;;;;;;18.42;42.05;99892.25;5040788;28;20515;-69
2021/05/18 07:47:03;;;;;;;11.33;6.87;;;;;;;18.51;42.04;99899.16;5039772;28;20993;-69
2021/05/18 07:49:31;;;;;;;10.63;6.70;;;;;;;18.89;42.15;99892.47;5040958;28;20441;-68
2021/05/18 08:00:31;;;;;;;10.90;7.63;;;;;;;19.01;42.23;99896.25;5040382;28;20504;-76
2021/05/18 08:05:44;;;;;;;12.70;8.67;;;;;;;17.98;44.44;99894.25;5040155;28;20795;-76
2021/05/18 08:08:26;;;;;;;15.57;11.00;;;;;;;16.18;48.34;99906.66;5039604;28;20465;-75
2021/05/18 08:10:59;;;;;;;12.87;10.20;;;;;;;17.26;46.78;99901.56;4984159;28;20482;-72
2021/05/18 08:13:25;;;;;;;15.73;11.23;;;;;;;17.79;44.85;99905.75;4978960;28;20456;-74
2021/05/18 08:18:59;;;;;;;20.60;11.83;;;;;;;16.98;48.84;99903.31;4979313;28;20452;-73
2021/05/18 10:16:20;;;;;;;12.00;9.80;;;;;;;20.53;40.83;99912.69;5041084;28;20461;-70
2021/05/18 10:22:05;;;;;;;10.13;9.13;;;;;;;19.99;41.60;99914.69;4998288;28;20481;-74
2021/05/18 10:35:47;;;;;;;11.03;9.93;;;;;;;20.60;40.86;99909.94;5041163;28;20445;-80
2021/05/18 10:38:19;;;;;;;12.20;10.90;;;;;;;19.53;44.05;99905.50;5034145;28;20533;-72
2021/05/18 10:40:45;;;;;;;12.13;10.50;;;;;;;17.99;47.36;99897.81;5039981;28;20580;-74
2021/05/18 10:43:18;;;;;;;12.23;10.97;;;;;;;18.10;46.19;99907.25;5041463;28;20462;-78
2021/05/18 10:46:25;;;;;;;11.73;10.53;;;;;;;19.02;45.57;99906.03;5041172;28;20473;-74
2021/05/18 10:48:59;;;;;;;13.00;10.90;;;;;;;19.28;42.82;99907.13;5041131;28;20452;-72
2021/05/18 10:51:56;;;;;;;12.57;9.90;;;;;;;19.23;42.97;99898.78;5041141;28;21321;-78
2021/05/18 10:54:28;;;;;;;12.87;10.17;;;;;;;19.75;43.03;99899.88;5039947;28;20468;-69
2021/05/18 10:57:03;;;;;;;9.37;8.47;;;;;;;19.27;45.99;99908.16;5041004;28;20481;-78
2021/05/18 10:59:31;;;;;;;9.97;8.37;;;;;;;19.57;42.26;99895.06;5041351;28;20464;-78
2021/05/18 11:01:58;;;;;;;10.10;9.10;;;;;;;19.53;43.82;99900.06;5039697;28;20481;-78
2021/05/18 11:04:25;;;;;;;9.70;8.13;;;;;;;20.08;40.81;99912.59;5041396;28;20460;-75
2021/05/18 11:06:52;;;;;;;9.37;8.20;;;;;;;20.49;40.49;99904.13;5040868;28;20477;-78
2021/05/18 11:09:18;;;;;;;9.10;8.20;;;;;;;20.95;39.56;99890.59;5040637;28;20525;-76
2021/05/18 11:11:48;;;;;;;11.50;8.80;;;;;;;20.53;40.66;99893.66;5040474;28;20478;-73
2021/05/18 11:14:15;;;;;;;10.40;8.50;;;;;;;20.53;40.71;99901.81;5040719;28;20457;-71
2021/05/18 11:16:41;;;;;;;8.13;7.33;;;;;;;19.35;42.21;99889.00;5039359;28;20796;-69
2021/05/18 11:19:11;;;;;;;10.57;9.10;;;;;;;20.83;39.75;99885.00;5041700;28;20434;-78
2021/05/18 11:21:40;;;;;;;9.10;8.00;;;;;;;20.71;38.02;99886.72;5045612;28;20469;-81
2021/05/18 11:24:11;;;;;;;7.97;6.53;;;;;;;21.66;35.09;99894.94;5041026;28;20904;-75
2021/05/18 11:26:48;;;;;;;9.73;8.83;;;;;;;20.12;40.18;99897.56;5035575;28;20489;-78
2021/05/18 11:29:15;;;;;;;9.83;8.83;;;;;;;19.56;40.15;99896.94;5040447;28;20509;-75
2021/05/18 11:31:41;;;;;;;9.80;8.03;;;;;;;19.52;41.71;99894.84;5039490;28;20749;-74
2021/05/18 11:34:08;;;;;;;11.73;8.13;;;;;;;19.37;40.79;99898.59;5040460;28;20728;-75
2021/05/18 11:36:37;;;;;;;9.40;8.03;;;;;;;19.66;40.68;99896.50;5021902;28;20489;-74
2021/05/18 11:39:07;;;;;;;9.40;8.50;;;;;;;20.09;41.09;99900.69;5025077;28;20462;-74
2021/05/18 11:41:35;;;;;;;10.10;7.57;;;;;;;19.85;41.68;99900.28;5037627;28;20477;-74
2021/05/18 11:44:04;;;;;;;10.53;9.00;;;;;;;18.98;42.93;99896.66;5038422;28;20998;-74
2021/05/18 11:46:46;;;;;;;12.40;9.53;;;;;;;19.46;40.79;99899.25;5025618;28;20482;-74
2021/05/18 11:49:13;;;;;;;11.50;9.00;;;;;;;19.79;41.43;99912.00;5013463;28;20474;-74
2021/05/18 11:51:43;;;;;;;13.10;10.80;;;;;;;19.54;41.15;99900.91;5017671;28;20474;-74
2021/05/18 11:54:10;;;;;;;11.70;9.80;;;;;;;19.41;41.49;99898.16;5016832;28;20506;-74
2021/05/18 11:56:38;;;;;;;13.33;10.10;;;;;;;19.48;42.45;99896.31;5017391;28;20501;-74
2021/05/18 11:59:07;;;;;;;10.93;9.60;;;;;;;19.26;41.49;99898.38;5018983;28;20881;-74
2021/05/18 12:01:35;;;;;;;10.93;9.30;;;;;;;19.81;41.57;99901.78;5017294;28;20473;-75
2021/05/18 12:04:07;;;;;;;13.27;9.97;;;;;;;19.64;41.69;99909.47;5017730;28;20447;-74
2021/05/18 12:06:35;;;;;;;13.50;10.10;;;;;;;20.10;41.13;99911.34;5019676;28;20496;-76
2021/05/18 12:09:03;;;;;;;13.80;10.80;;;;;;;20.14;41.00;99903.59;5020590;28;20477;-75
2021/05/18 12:11:29;;;;;;;11.23;10.00;;;;;;;19.88;41.77;99899.88;5021529;28;20478;-75
2021/05/18 12:13:56;;;;;;;12.03;9.03;;;;;;;21.05;40.22;99899.09;5021411;28;20489;-74
2021/05/18 12:16:24;;;;;;;15.13;9.57;;;;;;;21.46;38.10;99897.81;5019498;28;20489;-72
2021/05/18 12:18:52;;;;;;;13.53;9.20;;;;;;;21.62;37.39;99894.53;5022188;28;20438;-73
2021/05/18 12:21:20;;;;;;;9.63;8.63;;;;;;;21.58;37.25;99893.34;5020940;28;20551;-72
2021/05/18 12:24:03;;;;;;;14.90;9.67;;;;;;;21.53;37.61;99906.75;5017507;28;20996;-73
2021/05/18 12:26:30;;;;;;;10.80;9.20;;;;;;;21.85;37.22;99903.16;5019096;28;20547;-71
2021/05/18 12:28:58;;;;;;;11.30;9.63;;;;;;;21.15;39.80;99898.63;5031311;28;20453;-80
2021/05/18 12:31:27;;;;;;;13.33;9.70;;;;;;;19.61;41.67;99901.72;5041951;28;20511;-68
2021/05/18 12:33:53;;;;;;;13.37;10.47;;;;;;;19.78;41.08;99907.59;5043893;28;20457;-70
2021/05/18 12:36:20;;;;;;;17.40;10.87;;;;;;;20.47;39.72;99906.22;5043468;28;20478;-70
2021/05/18 12:39:04;;;;;;;15.03;11.07;;;;;;;19.68;41.12;99908.00;5043049;28;20458;-70
2021/05/18 12:41:35;;;;;;;15.33;12.40;;;;;;;19.81;40.44;99909.06;5040596;28;20474;-70
2021/05/18 12:44:06;;;;;;;13.27;10.03;;;;;;;19.00;43.03;99903.50;5043619;28;20453;-68
2021/05/18 12:46:33;;;;;;;10.70;8.63;;;;;;;18.92;43.99;99911.00;5036553;28;20478;-69
2021/05/18 12:48:59;;;;;;;9.93;8.63;;;;;;;18.93;44.60;99915.38;5041352;28;20482;-72
2021/05/18 12:51:27;;;;;;;11.20;8.60;;;;;;;18.23;45.63;99923.56;5042490;28;20488;-71
2021/05/18 12:54:02;;;;;;;10.63;9.07;;;;;;;18.19;46.37;99912.31;5042698;28;20457;-71
2021/05/18 12:56:29;;;;;;;9.60;8.60;;;;;;;18.24;46.94;99917.97;5043281;28;20485;-76
2021/05/18 12:59:03;;;;;;;9.43;8.43;;;;;;;17.93;47.44;99923.75;5043744;28;20460;-75
2021/05/18 13:01:41;;;;;;;8.90;8.00;;;;;;;18.36;45.89;99929.03;5042814;28;20560;-75
2021/05/18 13:04:11;;;;;;;7.90;7.10;;;;;;;17.83;46.75;99934.91;5043299;28;20464;-79
2021/05/18 13:06:44;;;;;;;11.17;8.00;;;;;;;18.01;46.60;99928.22;5042583;28;20497;-79
2021/05/18 13:09:17;;;;;;;8.87;7.23;;;;;;;18.50;45.53;99929.13;5043024;28;20527;-79
2021/05/18 13:14:28;;;;;;;8.77;7.73;;;;;;;18.77;44.81;99935.50;5044624;28;20552;-73
2021/05/18 13:17:04;;;;;;;8.17;7.37;;;;;;;18.52;45.43;99937.88;5041724;28;20484;-72
2021/05/18 13:19:31;;;;;;;7.30;6.60;;;;;;;18.59;45.03;99933.31;5042432;28;20556;-77
2021/05/18 13:21:58;;;;;;;8.17;7.37;;;;;;;18.65;44.48;99932.53;5042304;28;20478;-70
2021/05/18 13:26:25;;;;;;;7.90;7.10;;;;;;;18.61;44.14;99942.09;5040552;28;20453;-70
2021/05/18 13:27:13;;;;;;;8.67;7.33;;;;;;;17.49;47.48;99933.78;5042058;28;20478;-70
2021/05/18 13:29:40;;;;;;;8.27;7.07;;;;;;;17.82;46.29;99937.81;5042688;28;20460;-69
2021/05/18 13:32:07;;;;;;;9.43;7.37;;;;;;;18.04;47.08;99931.34;5041467;28;20290;-78
2021/05/18 13:34:33;;;;;;;8.97;8.07;;;;;;;18.24;47.27;99927.94;5042851;28;20453;-76
2021/05/18 13:36:59;;;;;;;8.60;7.80;;;;;;;18.62;46.64;99939.19;5042420;28;20466;-72
2021/05/18 13:39:26;;;;;;;8.37;6.40;;;;;;;19.15;43.76;99933.16;5041920;28;20481;-71
2021/05/18 13:41:53;;;;;;;5.77;4.97;;;;;;;18.93;43.18;99923.50;5041835;28;20512;-71
2021/05/18 13:44:19;;;;;;;5.93;5.30;;;;;;;19.52;41.80;99927.38;5040877;28;20477;-72
2021/05/18 13:46:47;;;;;;;5.80;5.30;;;;;;;19.86;41.86;99926.41;5041162;28;21079;-73
2021/05/18 13:49:14;;;;;;;6.23;5.63;;;;;;;20.55;39.97;99929.59;5042225;28;20454;-73
2021/05/18 13:51:41;;;;;;;6.17;5.57;;;;;;;19.57;41.66;99920.28;5041754;28;20485;-73
2021/05/18 13:54:07;;;;;;;7.63;5.10;;;;;;;20.01;41.31;99930.75;5041208;28;20460;-73
2021/05/18 13:56:34;;;;;;;5.10;4.70;;;;;;;19.72;40.81;99922.81;5041628;28;20478;-72
2021/05/18 13:59:00;;;;;;;5.00;4.23;;;;;;;19.25;42.55;99923.78;5042828;28;20437;-72
2021/05/18 14:01:27;;;;;;;3.70;3.23;;;;;;;20.21;40.66;99926.13;5040712;28;20469;-74
2021/05/18 14:03:54;;;;;;;3.17;2.70;;;;;;;20.01;38.58;99928.03;5042625;28;20453;-77
2021/05/18 14:06:21;;;;;;;3.00;2.37;;;;;;;21.25;38.07;99923.47;5039828;28;20481;-69
2021/05/18 14:08:47;;;;;;;2.50;2.30;;;;;;;20.25;39.77;99924.66;5035178;28;20540;-71
2021/05/18 14:11:16;;;;;;;3.27;2.63;;;;;;;20.77;37.73;99929.34;5031548;28;20482;-80
2021/05/18 14:13:43;;;;;;;3.00;2.03;;;;;;;20.19;39.02;99921.94;5022260;28;20482;-79
2021/05/18 14:16:14;;;;;;;2.40;2.20;;;;;;;19.67;40.19;99929.88;5032987;28;20473;-74
2021/05/18 14:18:41;;;;;;;2.93;2.17;;;;;;;20.07;38.39;99929.94;5039713;28;20438;-78
2021/05/18 14:21:08;;;;;;;2.40;2.20;;;;;;;20.22;38.67;99926.97;5038102;28;20812;-81
2021/05/18 14:23:39;;;;;;;2.20;1.83;;;;;;;19.78;38.78;99921.16;5040623;28;20471;-75
2021/05/18 14:26:06;;;;;;;2.17;1.97;;;;;;;19.99;39.37;99919.28;5039002;28;20478;-77
2021/05/18 14:28:33;;;;;;;2.40;2.20;;;;;;;20.30;38.15;99918.59;5025459;28;20490;-76
2021/05/18 14:30:59;;;;;;;3.47;2.83;;;;;;;20.45;38.25;99921.06;5029698;28;20490;-81
2021/05/18 14:33:25;;;;;;;2.47;2.10;;;;;;;20.11;39.40;99920.31;5031810;28;20453;-73
2021/05/18 14:35:52;;;;;;;3.00;2.37;;;;;;;20.17;39.89;99926.75;5035941;28;20477;-73
2021/05/18 14:38:20;;;;;;;2.30;2.10;;;;;;;20.13;39.17;99927.19;5038291;28;20946;-73
2021/05/18 14:46:19;;;;;;;2.83;2.20;;;;;;;19.76;40.65;99923.25;5009513;28;20959;-73
2021/05/18 14:57:04;;;;;;;2.90;2.60;;;;;;;18.40;44.30;99930.34;5020365;28;20493;-72
2021/05/18 14:59:31;;;;;;;3.10;2.80;;;;;;;19.15;43.34;99933.16;5035070;28;20443;-71
2021/05/18 15:01:57;;;;;;;3.70;3.40;;;;;;;19.10;44.16;99929.41;5027013;28;20478;-71
2021/05/18 15:04:24;;;;;;;3.47;3.17;;;;;;;19.89;41.78;99931.41;5027171;28;20466;-79
2021/05/18 15:06:50;;;;;;;3.30;3.00;;;;;;;20.59;39.83;99919.13;5024964;28;20488;-78
2021/05/18 15:09:16;;;;;;;3.60;2.40;;;;;;;20.80;39.87;99921.59;5032713;28;20492;-79
2021/05/18 15:11:42;;;;;;;3.30;3.00;;;;;;;19.96;40.34;99927.84;5025889;28;21045;-79
2021/05/18 15:14:11;;;;;;;3.50;3.20;;;;;;;20.13;40.14;99934.50;5037181;28;20554;-80
2021/05/18 15:16:37;;;;;;;3.00;2.70;;;;;;;20.57;39.11;99932.94;5040613;28;20543;-78
2021/05/18 15:19:07;;;;;;;3.40;2.40;;;;;;;20.84;39.63;99933.69;5042265;28;20430;-80
2021/05/18 15:21:33;;;;;;;4.10;3.30;;;;;;;20.61;39.97;99928.75;5039541;28;20482;-79
2021/05/18 15:23:59;;;;;;;15.83;3.90;;;;;;;21.03;39.16;99934.66;5036826;28;20942;-80
2021/05/18 15:26:26;;;;;;;4.70;3.93;;;;;;;20.34;39.60;99935.31;5026495;28;20566;-80
2021/05/18 15:28:52;;;;;;;2.73;2.53;;;;;;;20.17;41.24;99930.31;5036205;28;20493;-75
2021/05/18 15:31:19;;;;;;;3.77;2.63;;;;;;;19.68;39.23;99928.84;5031415;28;20481;-80
2021/05/18 15:33:46;;;;;;;5.73;2.47;;;;;;;19.33;39.86;99935.28;5036219;28;20524;-83
2021/05/18 15:36:13;;;;;;;3.00;2.10;;;;;;;19.38;40.25;99940.91;5031966;28;20493;-79
2021/05/18 15:38:40;;;;;;;3.83;2.43;;;;;;;19.06;40.53;99937.09;5039608;28;20461;-85
2021/05/18 15:41:07;;;;;;;3.13;2.70;;;;;;;19.19;40.90;99944.44;5041416;28;20516;-82
2021/05/18 15:43:33;;;;;;;5.13;3.03;;;;;;;19.64;40.84;99935.75;5042556;28;20458;-77
2021/05/18 15:45:59;;;;;;;4.43;2.67;;;;;;;19.45;41.46;99938.22;5042651;28;20665;-74
2021/05/18 15:48:27;;;;;;;4.27;2.83;;;;;;;19.81;41.34;99936.19;5042145;28;20497;-74
2021/05/18 15:50:53;;;;;;;2.93;2.60;;;;;;;19.45;40.97;99937.41;5034342;28;20482;-73
2021/05/18 15:53:19;;;;;;;2.80;2.60;;;;;;;19.84;40.95;99938.47;5032907;28;20554;-72